Time,TemperatureF,DewpointF,PressureIn,WindDirection,WindDirectionDegrees,WindSpeedMPH,WindSpeedGustMPH,Humidity,HourlyPrecipIn,Conditions,Clouds,dailyrainin,SoftwareType,DateUTC
2013-02-13 00:03:00,25.9,11.1,29.68,SW,229,4.7,4.7,53,0.00,,---,0.00,VWS V13.01,2013-02-13 06:03:00,
2013-02-13 00:08:00,25.9,11.1,29.68,West,262,5.1,8.3,53,0.00,,---,0.00,VWS V13.01,2013-02-13 06:08:00,
2013-02-13 00:13:00,26.1,11.3,29.68,SW,236,4.5,5.6,53,0.00,,---,0.00,VWS V13.01,2013-02-13 06:13:00,
2013-02-13 00:19:00,25.9,11.1,29.68,SW,220,8.7,8.7,53,0.00,,---,0.00,VWS V13.01,2013-02-13 06:19:00,
2013-02-13 00:25:00,25.9,11.1,29.68,WSW,238,8.3,8.3,53,0.00,,---,0.00,VWS V13.01,2013-02-13 06:25:00,
2013-02-13 00:30:00,25.9,11.1,29.68,WNW,297,6.0,6.0,53,0.00,,---,0.00,VWS V13.01,2013-02-13 06:30:00,
2013-02-13 00:35:00,25.9,11.1,29.68,West,264,5.1,6.0,53,0.00,,---,0.00,VWS V13.01,2013-02-13 06:35:00,
2013-02-13 00:40:00,25.9,11.1,29.68,SW,220,10.7,10.7,53,0.00,,---,0.00,VWS V13.01,2013-02-13 06:40:00,
2013-02-13 00:45:00,25.7,10.9,29.68,SW,223,5.1,8.3,53,0.00,,---,0.00,VWS V13.01,2013-02-13 06:45:00,
2013-02-13 00:50:00,25.7,10.9,29.68,WSW,244,5.6,8.9,53,0.00,,---,0.00,VWS V13.01,2013-02-13 06:50:00,
2013-02-13 00:56:00,25.7,11.4,29.68,WNW,282,6.9,6.9,54,0.00,,---,0.00,VWS V13.01,2013-02-13 06:56:00,
2013-02-13 01:01:00,25.5,11.2,29.68,SW,234,6.5,6.5,54,0.00,,---,0.00,VWS V13.01,2013-02-13 07:01:00,
2013-02-13 01:07:00,25.5,11.2,29.68,SW,234,4.5,7.4,54,0.00,,---,0.00,VWS V13.01,2013-02-13 07:07:00,
2013-02-13 01:12:00,25.5,11.2,29.68,WSW,253,4.0,8.3,54,0.00,,---,0.00,VWS V13.01,2013-02-13 07:12:00,
2013-02-13 01:18:00,25.5,11.2,29.68,West,272,4.7,6.9,54,0.00,,---,0.00,VWS V13.01,2013-02-13 07:18:00,
2013-02-13 01:23:00,25.5,11.2,29.68,West,281,4.5,7.4,54,0.00,,---,0.00,VWS V13.01,2013-02-13 07:23:00,
2013-02-13 01:29:00,25.5,11.2,29.68,SW,234,5.6,7.8,54,0.00,,---,0.00,VWS V13.01,2013-02-13 07:29:00,
2013-02-13 01:35:00,25.5,11.2,29.68,SW,226,4.5,4.5,54,0.00,,---,0.00,VWS V13.01,2013-02-13 07:35:00,
2013-02-13 01:40:00,25.5,11.2,29.68,WNW,288,4.7,12.5,54,0.00,,---,0.00,VWS V13.01,2013-02-13 07:40:00,
2013-02-13 01:46:00,25.7,11.4,29.68,SSW,196,6.5,6.5,54,0.00,,---,0.00,VWS V13.01,2013-02-13 07:46:00,
2013-02-13 01:52:00,25.5,11.2,29.68,WNW,295,5.6,6.5,54,0.00,,---,0.00,VWS V13.01,2013-02-13 07:52:00,
2013-02-13 01:57:00,25.5,11.2,29.68,WSW,243,4.5,5.6,54,0.00,,---,0.00,VWS V13.01,2013-02-13 07:57:00,
2013-02-13 02:02:00,25.5,11.2,29.68,West,263,2.7,5.1,54,0.00,,---,0.00,VWS V13.01,2013-02-13 08:02:00,
2013-02-13 02:07:00,25.5,11.2,29.68,SW,227,5.1,6.0,54,0.00,,---,0.00,VWS V13.01,2013-02-13 08:07:00,
2013-02-13 02:13:00,25.5,11.2,29.68,West,272,4.0,4.5,54,0.00,,---,0.00,VWS V13.01,2013-02-13 08:13:00,
2013-02-13 02:18:00,25.5,11.2,29.68,West,280,7.4,7.4,54,0.00,,---,0.00,VWS V13.01,2013-02-13 08:18:00,
2013-02-13 02:23:00,25.5,11.2,29.68,WNW,285,4.7,5.1,54,0.00,,---,0.00,VWS V13.01,2013-02-13 08:23:00,
2013-02-13 02:28:00,25.5,11.2,29.65,West,263,4.7,7.8,54,0.00,,---,0.00,VWS V13.01,2013-02-13 08:28:00,
2013-02-13 02:33:00,25.5,11.2,29.65,WNW,283,5.1,7.4,54,0.00,,---,0.00,VWS V13.01,2013-02-13 08:33:00,
2013-02-13 02:39:00,25.5,11.2,29.65,West,267,4.7,5.6,54,0.00,,---,0.00,VWS V13.01,2013-02-13 08:39:00,
2013-02-13 02:45:00,25.3,11.0,29.65,SW,236,4.7,5.1,54,0.00,,---,0.00,VWS V13.01,2013-02-13 08:45:00,
2013-02-13 02:50:00,25.3,11.0,29.65,WSW,247,4.0,6.5,54,0.00,,---,0.00,VWS V13.01,2013-02-13 08:50:00,
2013-02-13 02:56:00,25.3,11.4,29.65,WSW,250,4.0,6.0,55,0.00,,---,0.00,VWS V13.01,2013-02-13 08:56:00,
2013-02-13 03:01:00,25.3,11.4,29.65,WSW,238,4.0,5.1,55,0.00,,---,0.00,VWS V13.01,2013-02-13 09:01:00,
2013-02-13 03:07:00,25.3,11.4,29.65,SW,214,4.7,5.1,55,0.00,,---,0.00,VWS V13.01,2013-02-13 09:07:00,
2013-02-13 03:13:00,25.3,11.4,29.65,SW,235,4.5,4.7,55,0.00,,---,0.00,VWS V13.01,2013-02-13 09:13:00,
2013-02-13 03:18:00,25.3,11.4,29.65,SW,227,3.6,5.6,55,0.00,,---,0.00,VWS V13.01,2013-02-13 09:18:00,
2013-02-13 03:24:00,25.2,11.3,29.65,WSW,237,4.5,4.5,55,0.00,,---,0.00,VWS V13.01,2013-02-13 09:24:00,
2013-02-13 03:29:00,25.2,11.3,29.65,WSW,245,3.1,8.3,55,0.00,,---,0.00,VWS V13.01,2013-02-13 09:29:00,
2013-02-13 03:34:00,25.0,11.1,29.65,SW,226,5.6,5.6,55,0.00,,---,0.00,VWS V13.01,2013-02-13 09:34:00,
2013-02-13 03:40:00,24.8,10.9,29.65,SW,223,4.7,5.6,55,0.00,,---,0.00,VWS V13.01,2013-02-13 09:40:00,
2013-02-13 03:46:00,24.8,11.3,29.65,SW,229,4.0,4.7,56,0.00,,---,0.00,VWS V13.01,2013-02-13 09:46:00,
2013-02-13 03:52:00,24.6,11.2,29.65,SW,220,5.1,5.6,56,0.00,,---,0.00,VWS V13.01,2013-02-13 09:52:00,
2013-02-13 03:57:00,24.4,11.0,29.65,SW,223,5.1,5.6,56,0.00,,---,0.00,VWS V13.01,2013-02-13 09:57:00,
2013-02-13 04:02:00,24.4,11.0,29.65,SW,227,4.5,4.5,56,0.00,,---,0.00,VWS V13.01,2013-02-13 10:02:00,
2013-02-13 04:08:00,24.4,11.0,29.65,WSW,248,3.6,4.7,56,0.00,,---,0.00,VWS V13.01,2013-02-13 10:08:00,
2013-02-13 04:13:00,24.4,11.4,29.65,SSW,205,5.1,6.0,57,0.00,,---,0.00,VWS V13.01,2013-02-13 10:13:00,
2013-02-13 04:19:00,24.4,11.4,29.65,SW,233,6.0,6.0,57,0.00,,---,0.00,VWS V13.01,2013-02-13 10:19:00,
2013-02-13 04:25:00,24.6,11.6,29.65,WSW,239,9.4,9.4,57,0.00,,---,0.00,VWS V13.01,2013-02-13 10:25:00,
2013-02-13 04:30:00,24.6,11.2,29.65,WNW,288,5.1,5.1,56,0.00,,---,0.00,VWS V13.01,2013-02-13 10:30:00,
2013-02-13 04:36:00,24.6,11.2,29.65,SW,220,4.5,5.1,56,0.00,,---,0.00,VWS V13.01,2013-02-13 10:36:00,
2013-02-13 04:42:00,24.6,11.2,29.65,SW,236,3.6,4.7,56,0.00,,---,0.00,VWS V13.01,2013-02-13 10:42:00,
2013-02-13 04:47:00,24.6,11.2,29.65,SW,220,5.1,6.9,56,0.00,,---,0.00,VWS V13.01,2013-02-13 10:47:00,
2013-02-13 04:53:00,24.6,11.2,29.65,SSW,207,4.5,5.6,56,0.00,,---,0.00,VWS V13.01,2013-02-13 10:53:00,
2013-02-13 04:58:00,24.6,11.2,29.65,SW,214,4.0,4.5,56,0.00,,---,0.00,VWS V13.01,2013-02-13 10:58:00,
2013-02-13 05:04:00,24.6,11.2,29.65,SW,219,0.0,0.0,56,0.00,,---,0.00,VWS V13.01,2013-02-13 11:04:00,
2013-02-13 05:10:00,24.4,11.0,29.65,WSW,237,5.1,5.1,56,0.00,,---,0.00,VWS V13.01,2013-02-13 11:10:00,
2013-02-13 05:15:00,24.4,11.0,29.65,SSW,207,4.0,4.5,56,0.00,,---,0.00,VWS V13.01,2013-02-13 11:15:00,
2013-02-13 05:21:00,24.4,11.0,29.65,West,264,2.7,3.6,56,0.00,,---,0.00,VWS V13.01,2013-02-13 11:21:00,
2013-02-13 05:27:00,24.3,11.2,29.65,SSW,204,4.5,5.1,57,0.00,,---,0.00,VWS V13.01,2013-02-13 11:27:00,
2013-02-13 05:33:00,24.4,11.4,29.65,SW,224,3.1,4.5,57,0.00,,---,0.00,VWS V13.01,2013-02-13 11:33:00,
2013-02-13 05:39:00,24.3,11.2,29.65,SSW,200,4.7,4.7,57,0.00,,---,0.00,VWS V13.01,2013-02-13 11:39:00,
2013-02-13 05:44:00,24.3,11.2,29.65,WSW,250,4.5,6.9,57,0.00,,---,0.00,VWS V13.01,2013-02-13 11:44:00,
2013-02-13 05:50:00,24.1,11.1,29.65,SSW,207,3.6,4.5,57,0.00,,---,0.00,VWS V13.01,2013-02-13 11:50:00,
2013-02-13 05:56:00,23.9,10.9,29.65,SW,226,3.6,4.7,57,0.00,,---,0.00,VWS V13.01,2013-02-13 11:56:00,
2013-02-13 06:02:00,23.9,10.9,29.65,SW,231,4.5,4.5,57,0.00,,---,0.00,VWS V13.01,2013-02-13 12:02:00,
2013-02-13 06:08:00,23.7,10.7,29.65,SW,229,3.6,4.7,57,0.00,,---,0.00,VWS V13.01,2013-02-13 12:08:00,
2013-02-13 06:13:00,23.5,10.6,29.65,SW,217,4.5,4.7,57,0.00,,---,0.00,VWS V13.01,2013-02-13 12:13:00,
2013-02-13 06:19:00,23.4,10.4,29.65,SW,223,3.6,4.0,57,0.00,,---,0.00,VWS V13.01,2013-02-13 12:19:00,
2013-02-13 06:24:00,23.2,10.6,29.65,West,262,5.6,5.6,58,0.00,,---,0.00,VWS V13.01,2013-02-13 12:24:00,
2013-02-13 06:30:00,23.2,10.6,29.65,WSW,248,3.6,5.1,58,0.00,,---,0.00,VWS V13.01,2013-02-13 12:30:00,
2013-02-13 06:35:00,23.0,10.8,29.65,WSW,237,3.6,4.7,59,0.00,,---,0.00,VWS V13.01,2013-02-13 12:35:00,
2013-02-13 06:40:00,22.8,10.6,29.65,WSW,237,4.5,4.5,59,0.00,,---,0.00,VWS V13.01,2013-02-13 12:40:00,
2013-02-13 06:46:00,22.8,10.6,29.65,West,268,4.7,5.6,59,0.00,,---,0.00,VWS V13.01,2013-02-13 12:46:00,
2013-02-13 06:51:00,22.8,10.6,29.65,WSW,254,5.1,6.0,59,0.00,,---,0.00,VWS V13.01,2013-02-13 12:51:00,
2013-02-13 06:57:00,22.6,10.5,29.62,SSW,213,5.1,5.6,59,0.00,,---,0.00,VWS V13.01,2013-02-13 12:57:00,
2013-02-13 07:03:00,22.5,10.3,29.62,SW,220,5.6,5.6,59,0.00,,---,0.00,VWS V13.01,2013-02-13 13:03:00,
2013-02-13 07:08:00,22.1,10.0,29.62,SW,234,5.6,5.6,59,0.00,,---,0.00,VWS V13.01,2013-02-13 13:08:00,
2013-02-13 07:13:00,21.9,10.2,29.62,SW,228,4.7,6.5,60,0.00,,---,0.00,VWS V13.01,2013-02-13 13:13:00,
2013-02-13 07:18:00,21.9,10.2,29.62,WSW,246,4.7,4.7,60,0.00,,---,0.00,VWS V13.01,2013-02-13 13:18:00,
2013-02-13 07:24:00,21.9,10.6,29.62,SW,236,3.6,4.5,61,0.00,,---,0.00,VWS V13.01,2013-02-13 13:24:00,
2013-02-13 07:29:00,21.7,10.4,29.62,SSW,205,4.5,4.7,61,0.00,,---,0.00,VWS V13.01,2013-02-13 13:29:00,
2013-02-13 07:35:00,21.7,10.4,29.62,SW,226,6.0,6.0,61,0.00,,---,0.00,VWS V13.01,2013-02-13 13:35:00,
2013-02-13 07:40:00,21.6,10.2,29.62,SW,221,4.0,5.1,61,0.00,,---,0.00,VWS V13.01,2013-02-13 13:40:00,
2013-02-13 07:45:00,21.7,10.4,29.65,WSW,243,4.5,4.7,61,0.00,,---,0.00,VWS V13.01,2013-02-13 13:45:00,
2013-02-13 07:50:00,21.7,10.4,29.65,WSW,237,0.0,4.5,61,0.00,,---,0.00,VWS V13.01,2013-02-13 13:50:00,
2013-02-13 07:56:00,21.9,10.9,29.65,WSW,256,4.5,4.7,62,0.00,,---,0.00,VWS V13.01,2013-02-13 13:56:00,
2013-02-13 08:01:00,21.9,10.9,29.65,WSW,239,3.6,4.7,62,0.00,,---,0.00,VWS V13.01,2013-02-13 14:01:00,
2013-02-13 08:07:00,22.1,10.7,29.65,WSW,239,3.1,5.1,61,0.00,,---,0.00,VWS V13.01,2013-02-13 14:07:00,
2013-02-13 08:13:00,22.1,10.7,29.62,SW,221,4.5,4.5,61,0.00,,---,0.00,VWS V13.01,2013-02-13 14:13:00,
2013-02-13 08:18:00,22.3,10.9,29.62,WSW,249,0.0,0.0,61,0.00,,---,0.00,VWS V13.01,2013-02-13 14:18:00,
2013-02-13 08:23:00,22.5,11.1,29.62,SW,226,2.7,4.0,61,0.00,,---,0.00,VWS V13.01,2013-02-13 14:23:00,
2013-02-13 08:29:00,22.8,11.4,29.62,SW,223,4.7,5.1,61,0.00,,---,0.00,VWS V13.01,2013-02-13 14:29:00,
2013-02-13 08:34:00,23.4,11.9,29.62,SSW,213,4.7,4.7,61,0.00,,---,0.00,VWS V13.01,2013-02-13 14:34:00,
2013-02-13 08:39:00,24.1,12.2,29.62,SSW,197,4.7,4.7,60,0.00,,---,0.00,VWS V13.01,2013-02-13 14:39:00,
2013-02-13 08:44:00,24.6,12.7,29.62,SW,230,3.6,4.5,60,0.00,,---,0.00,VWS V13.01,2013-02-13 14:44:00,
2013-02-13 08:49:00,25.2,12.5,29.62,WSW,248,5.1,5.1,58,0.00,,---,0.00,VWS V13.01,2013-02-13 14:49:00,
2013-02-13 08:54:00,25.5,12.4,29.62,SW,232,4.0,4.5,57,0.00,,---,0.00,VWS V13.01,2013-02-13 14:54:00,
2013-02-13 09:00:00,25.9,12.8,29.62,SW,232,0.0,3.6,57,0.00,,---,0.00,VWS V13.01,2013-02-13 15:00:00,
2013-02-13 09:05:00,26.4,12.9,29.62,West,275,4.0,4.7,56,0.00,,---,0.00,VWS V13.01,2013-02-13 15:05:00,
2013-02-13 09:11:00,27.0,12.6,29.62,West,268,0.0,4.5,54,0.00,,---,0.00,VWS V13.01,2013-02-13 15:11:00,
2013-02-13 09:16:00,27.1,12.3,29.62,WSW,243,4.0,4.7,53,0.00,,---,0.00,VWS V13.01,2013-02-13 15:16:00,
2013-02-13 09:21:00,27.3,12.5,29.62,West,264,5.1,5.6,53,0.00,,---,0.00,VWS V13.01,2013-02-13 15:21:00,
2013-02-13 09:27:00,27.7,12.8,29.62,WSW,241,5.1,6.0,53,0.00,,---,0.00,VWS V13.01,2013-02-13 15:27:00,
2013-02-13 09:33:00,27.9,12.5,29.62,NW,317,5.1,5.1,52,0.00,,---,0.00,VWS V13.01,2013-02-13 15:33:00,
2013-02-13 09:38:00,28.0,12.7,29.62,West,262,4.5,5.6,52,0.00,,---,0.00,VWS V13.01,2013-02-13 15:38:00,
2013-02-13 09:43:00,28.4,13.0,29.62,SW,235,0.0,0.0,52,0.00,,---,0.00,VWS V13.01,2013-02-13 15:43:00,
2013-02-13 09:49:00,28.8,12.9,29.62,SW,215,3.6,5.1,51,0.00,,---,0.00,VWS V13.01,2013-02-13 15:49:00,
2013-02-13 09:54:00,29.3,13.4,29.62,WSW,248,4.5,6.5,51,0.00,,---,0.00,VWS V13.01,2013-02-13 15:54:00,
2013-02-13 10:00:00,29.3,13.4,29.62,WSW,241,4.0,4.0,51,0.00,,---,0.00,VWS V13.01,2013-02-13 16:00:00,
2013-02-13 10:05:00,29.5,13.6,29.62,West,268,0.0,2.7,51,0.00,,---,0.00,VWS V13.01,2013-02-13 16:05:00,
2013-02-13 10:10:00,29.8,13.9,29.62,NW,320,3.1,3.1,51,0.00,,---,0.00,VWS V13.01,2013-02-13 16:10:00,
2013-02-13 10:15:00,30.2,13.8,29.62,West,260,4.5,5.1,50,0.00,,---,0.00,VWS V13.01,2013-02-13 16:15:00,
2013-02-13 10:21:00,31.1,14.2,29.62,SSW,207,5.6,6.9,49,0.00,,---,0.00,VWS V13.01,2013-02-13 16:21:00,
2013-02-13 10:26:00,31.5,13.6,29.62,SW,222,4.7,6.5,47,0.00,,---,0.00,VWS V13.01,2013-02-13 16:26:00,
2013-02-13 10:32:00,32.2,14.2,29.62,SSW,207,4.5,6.0,47,0.00,,---,0.00,VWS V13.01,2013-02-13 16:32:00,
2013-02-13 10:37:00,32.7,14.2,29.62,SW,233,4.0,6.0,46,0.00,,---,0.00,VWS V13.01,2013-02-13 16:37:00,
2013-02-13 10:42:00,33.3,13.7,29.62,SW,216,3.6,5.1,44,0.00,,---,0.00,VWS V13.01,2013-02-13 16:42:00,
2013-02-13 10:48:00,33.4,14.4,29.62,WSW,241,5.6,5.6,45,0.00,,---,0.00,VWS V13.01,2013-02-13 16:48:00,
2013-02-13 10:53:00,33.6,14.1,29.62,SW,221,5.1,6.0,44,0.00,,---,0.00,VWS V13.01,2013-02-13 16:53:00,
2013-02-13 10:58:00,33.8,13.7,29.62,SSW,212,4.7,6.0,43,0.00,,---,0.00,VWS V13.01,2013-02-13 16:58:00,
2013-02-13 11:03:00,33.8,13.7,29.62,SW,217,4.0,6.5,43,0.00,,---,0.00,VWS V13.01,2013-02-13 17:03:00,
2013-02-13 11:09:00,34.0,13.9,29.62,WSW,251,4.0,4.5,43,0.00,,---,0.00,VWS V13.01,2013-02-13 17:09:00,
2013-02-13 11:14:00,34.5,14.3,29.62,SW,218,7.4,7.4,43,0.00,,---,0.00,VWS V13.01,2013-02-13 17:14:00,
2013-02-13 11:19:00,35.2,15.0,29.62,SSW,211,6.5,6.9,43,0.00,,---,0.00,VWS V13.01,2013-02-13 17:19:00,
2013-02-13 11:24:00,35.8,14.9,29.62,SSW,201,6.5,8.3,42,0.00,,---,0.00,VWS V13.01,2013-02-13 17:24:00,
2013-02-13 11:29:00,36.1,15.3,29.62,WSW,249,7.4,7.4,42,0.00,,---,0.00,VWS V13.01,2013-02-13 17:29:00,
2013-02-13 11:34:00,36.1,15.3,29.62,SW,228,7.4,7.4,42,0.00,,---,0.00,VWS V13.01,2013-02-13 17:34:00,
2013-02-13 11:39:00,36.5,15.6,29.62,SSW,199,4.5,5.6,42,0.00,,---,0.00,VWS V13.01,2013-02-13 17:39:00,
2013-02-13 11:44:00,37.2,16.3,29.62,WNW,288,4.7,5.1,42,0.00,,---,0.00,VWS V13.01,2013-02-13 17:44:00,
2013-02-13 11:49:00,37.8,16.2,29.62,WSW,249,6.5,6.5,41,0.00,,---,0.00,VWS V13.01,2013-02-13 17:49:00,
2013-02-13 11:55:00,38.3,16.1,29.62,SSW,212,6.5,9.4,40,0.00,,---,0.00,VWS V13.01,2013-02-13 17:55:00,
2013-02-13 12:00:00,38.8,16.6,29.59,SW,229,7.4,7.4,40,0.00,,---,0.00,VWS V13.01,2013-02-13 18:00:00,
2013-02-13 12:05:00,39.4,17.1,29.59,WSW,256,6.5,8.3,40,0.00,,---,0.00,VWS V13.01,2013-02-13 18:05:00,
2013-02-13 12:10:00,39.6,16.7,29.59,WNW,290,5.1,5.1,39,0.00,,---,0.00,VWS V13.01,2013-02-13 18:10:00,
2013-02-13 12:15:00,39.7,16.8,29.59,SW,223,5.6,6.5,39,0.00,,---,0.00,VWS V13.01,2013-02-13 18:15:00,
2013-02-13 12:20:00,40.5,17.5,29.59,West,269,4.5,6.9,39,0.00,,---,0.00,VWS V13.01,2013-02-13 18:20:00,
2013-02-13 12:25:00,40.8,17.8,29.59,WSW,256,6.0,6.5,39,0.00,,---,0.00,VWS V13.01,2013-02-13 18:25:00,
2013-02-13 12:30:00,41.2,18.1,29.59,West,270,3.6,4.7,39,0.00,,---,0.00,VWS V13.01,2013-02-13 18:30:00,
2013-02-13 12:35:00,41.9,18.2,29.59,SW,235,6.0,6.9,38,0.00,,---,0.00,VWS V13.01,2013-02-13 18:35:00,
2013-02-13 12:40:00,41.9,18.2,29.59,SW,223,5.1,5.1,38,0.00,,---,0.00,VWS V13.01,2013-02-13 18:40:00,
2013-02-13 12:45:00,41.7,18.0,29.59,WNW,295,6.0,6.0,38,0.00,,---,0.00,VWS V13.01,2013-02-13 18:45:00,
2013-02-13 12:50:00,41.4,17.7,29.59,SW,226,3.1,5.1,38,0.00,,---,0.00,VWS V13.01,2013-02-13 18:50:00,
2013-02-13 12:55:00,41.2,17.5,29.59,North,350,6.0,6.0,38,0.00,,---,0.00,VWS V13.01,2013-02-13 18:55:00,
2013-02-13 13:00:00,41.0,17.4,29.59,NW,326,4.0,6.0,38,0.00,,---,0.00,VWS V13.01,2013-02-13 19:00:00,
2013-02-13 13:05:00,40.8,17.8,29.59,West,279,5.6,6.9,39,0.00,,---,0.00,VWS V13.01,2013-02-13 19:05:00,
2013-02-13 13:10:00,40.8,17.8,29.59,NNW,338,4.5,5.1,39,0.00,,---,0.00,VWS V13.01,2013-02-13 19:10:00,
2013-02-13 13:15:00,41.0,18.0,29.59,West,266,6.0,7.4,39,0.00,,---,0.00,VWS V13.01,2013-02-13 19:15:00,
2013-02-13 13:20:00,41.2,17.5,29.59,West,273,5.6,6.9,38,0.00,,---,0.00,VWS V13.01,2013-02-13 19:20:00,
2013-02-13 13:25:00,40.8,17.8,29.59,NW,323,4.0,5.6,39,0.00,,---,0.00,VWS V13.01,2013-02-13 19:25:00,
2013-02-13 13:30:00,41.0,17.4,29.59,WNW,303,4.5,6.9,38,0.00,,---,0.00,VWS V13.01,2013-02-13 19:30:00,
2013-02-13 13:35:00,41.0,17.4,29.59,West,259,6.9,6.9,38,0.00,,---,0.00,VWS V13.01,2013-02-13 19:35:00,
2013-02-13 13:40:00,41.0,18.0,29.59,NW,317,3.6,5.1,39,0.00,,---,0.00,VWS V13.01,2013-02-13 19:40:00,
2013-02-13 13:45:00,40.5,17.5,29.59,NW,320,4.5,6.0,39,0.00,,---,0.00,VWS V13.01,2013-02-13 19:45:00,
2013-02-13 13:50:00,39.9,17.0,29.59,WSW,240,4.5,5.1,39,0.00,,---,0.00,VWS V13.01,2013-02-13 19:50:00,
2013-02-13 13:55:00,39.9,17.0,29.59,West,275,4.5,6.9,39,0.00,,---,0.00,VWS V13.01,2013-02-13 19:55:00,
2013-02-13 14:00:00,39.9,17.0,29.59,WNW,298,4.5,10.7,39,0.00,,---,0.00,VWS V13.01,2013-02-13 20:00:00,
2013-02-13 14:05:00,40.1,17.1,29.59,WSW,246,4.7,5.6,39,0.00,,---,0.00,VWS V13.01,2013-02-13 20:05:00,
2013-02-13 14:10:00,40.3,17.3,29.59,NW,315,4.0,6.0,39,0.00,,---,0.00,VWS V13.01,2013-02-13 20:10:00,
2013-02-13 14:15:00,39.7,16.8,29.59,WSW,244,5.1,12.1,39,0.00,,---,0.00,VWS V13.01,2013-02-13 20:15:00,
2013-02-13 14:20:00,39.2,16.3,29.59,WNW,286,4.0,4.0,39,0.00,,---,0.00,VWS V13.01,2013-02-13 20:20:00,
2013-02-13 14:25:00,39.0,16.8,29.59,West,269,6.0,6.0,40,0.00,,---,0.00,VWS V13.01,2013-02-13 20:25:00,
2013-02-13 14:30:00,38.8,16.6,29.59,WSW,251,4.7,6.9,40,0.00,,---,0.00,VWS V13.01,2013-02-13 20:30:00,
2013-02-13 14:35:00,38.7,16.4,29.59,West,274,4.7,7.4,40,0.00,,---,0.00,VWS V13.01,2013-02-13 20:35:00,
2013-02-13 14:40:00,38.7,16.4,29.59,WSW,252,4.0,6.0,40,0.00,,---,0.00,VWS V13.01,2013-02-13 20:40:00,
2013-02-13 14:46:00,38.7,16.4,29.59,SW,231,5.1,5.6,40,0.00,,---,0.00,VWS V13.01,2013-02-13 20:46:00,
2013-02-13 14:51:00,38.7,17.0,29.59,WSW,254,5.1,6.9,41,0.00,,---,0.00,VWS V13.01,2013-02-13 20:51:00,
2013-02-13 14:57:00,38.7,17.0,29.59,West,264,6.5,6.5,41,0.00,,---,0.00,VWS V13.01,2013-02-13 20:57:00,
2013-02-13 15:02:00,38.7,17.0,29.59,WNW,303,4.0,5.1,41,0.00,,---,0.00,VWS V13.01,2013-02-13 21:02:00,
2013-02-13 15:07:00,38.7,17.0,29.59,WNW,303,4.0,4.5,41,0.00,,---,0.00,VWS V13.01,2013-02-13 21:07:00,
2013-02-13 15:12:00,38.7,17.0,29.59,NW,305,4.5,6.0,41,0.00,,---,0.00,VWS V13.01,2013-02-13 21:12:00,
2013-02-13 15:18:00,38.7,17.0,29.59,WNW,288,0.0,3.1,41,0.00,,---,0.00,VWS V13.01,2013-02-13 21:18:00,
2013-02-13 15:23:00,38.8,17.2,29.59,NNE,19,0.0,2.7,41,0.00,,---,0.00,VWS V13.01,2013-02-13 21:23:00,
2013-02-13 15:28:00,38.7,17.0,29.59,North,350,0.0,3.1,41,0.00,,---,0.00,VWS V13.01,2013-02-13 21:28:00,
2013-02-13 15:33:00,38.5,16.8,29.59,North,353,0.0,0.0,41,0.00,,---,0.00,VWS V13.01,2013-02-13 21:33:00,
2013-02-13 15:39:00,38.1,16.5,29.59,North,353,0.0,0.0,41,0.00,,---,0.00,VWS V13.01,2013-02-13 21:39:00,
2013-02-13 15:44:00,37.9,16.4,29.59,North,353,0.0,0.0,41,0.00,,---,0.00,VWS V13.01,2013-02-13 21:44:00,
2013-02-13 15:50:00,37.6,16.0,29.59,West,280,0.0,3.1,41,0.00,,---,0.00,VWS V13.01,2013-02-13 21:50:00,
2013-02-13 15:56:00,37.6,16.6,29.59,West,280,0.0,0.0,42,0.00,,---,0.00,VWS V13.01,2013-02-13 21:56:00,
2013-02-13 16:01:00,37.4,16.4,29.59,West,280,0.0,0.0,42,0.00,,---,0.00,VWS V13.01,2013-02-13 22:01:00,
2013-02-13 16:06:00,37.2,16.3,29.59,West,280,0.0,0.0,42,0.00,,---,0.00,VWS V13.01,2013-02-13 22:06:00,
2013-02-13 16:11:00,37.0,16.1,29.59,North,357,3.1,4.0,42,0.00,,---,0.00,VWS V13.01,2013-02-13 22:11:00,
2013-02-13 16:16:00,36.9,15.9,29.59,NNW,335,3.1,4.0,42,0.00,,---,0.00,VWS V13.01,2013-02-13 22:16:00,
2013-02-13 16:22:00,36.9,16.5,29.59,NNW,335,3.6,3.6,43,0.00,,---,0.00,VWS V13.01,2013-02-13 22:22:00,
2013-02-13 16:28:00,36.7,16.3,29.59,North,357,3.6,4.7,43,0.00,,---,0.00,VWS V13.01,2013-02-13 22:28:00,
2013-02-13 16:33:00,36.3,16.5,29.59,North,357,4.5,5.1,44,0.00,,---,0.00,VWS V13.01,2013-02-13 22:33:00,
2013-02-13 16:38:00,36.1,16.4,29.59,NNE,16,4.5,5.1,44,0.00,,---,0.00,VWS V13.01,2013-02-13 22:38:00,
2013-02-13 16:43:00,35.8,16.0,29.59,North,4,4.5,5.1,44,0.00,,---,0.00,VWS V13.01,2013-02-13 22:43:00,
2013-02-13 16:49:00,35.4,16.7,29.59,NNE,12,4.5,5.1,46,0.00,,---,0.00,VWS V13.01,2013-02-13 22:49:00,
2013-02-13 16:54:00,35.1,16.4,29.59,North,357,4.0,4.5,46,0.00,,---,0.00,VWS V13.01,2013-02-13 22:54:00,
2013-02-13 17:00:00,34.7,16.5,29.59,North,357,4.7,4.7,47,0.00,,---,0.00,VWS V13.01,2013-02-13 23:00:00,
2013-02-13 17:05:00,34.5,16.9,29.59,North,357,5.1,5.1,48,0.00,,---,0.00,VWS V13.01,2013-02-13 23:05:00,
2013-02-13 17:11:00,34.2,16.5,29.59,North,357,3.6,5.1,48,0.00,,---,0.00,VWS V13.01,2013-02-13 23:11:00,
2013-02-13 17:17:00,34.0,16.4,29.59,North,357,3.6,4.7,48,0.00,,---,0.00,VWS V13.01,2013-02-13 23:17:00,
2013-02-13 17:22:00,33.8,16.2,29.59,North,5,3.6,4.5,48,0.00,,---,0.00,VWS V13.01,2013-02-13 23:22:00,
2013-02-13 17:28:00,33.6,17.0,29.59,North,357,4.0,4.5,50,0.00,,---,0.00,VWS V13.01,2013-02-13 23:28:00,
2013-02-13 17:33:00,33.3,16.6,29.59,North,357,5.6,5.6,50,0.00,,---,0.00,VWS V13.01,2013-02-13 23:33:00,
2013-02-13 17:38:00,33.1,16.5,29.59,North,357,3.6,4.7,50,0.00,,---,0.00,VWS V13.01,2013-02-13 23:38:00,
2013-02-13 17:44:00,32.7,16.6,29.59,North,357,4.0,4.5,51,0.00,,---,0.00,VWS V13.01,2013-02-13 23:44:00,
2013-02-13 17:49:00,32.5,16.4,29.59,North,8,3.6,5.1,51,0.00,,---,0.00,VWS V13.01,2013-02-13 23:49:00,
2013-02-13 17:55:00,32.5,16.4,29.59,NNE,21,4.0,4.7,51,0.00,,---,0.00,VWS V13.01,2013-02-13 23:55:00,
2013-02-13 18:01:00,32.2,16.5,29.62,NNE,20,3.6,3.6,52,0.00,,---,0.00,VWS V13.01,2013-02-14 00:01:00,
2013-02-13 18:07:00,32.2,16.5,29.62,North,357,4.0,4.7,52,0.00,,---,0.00,VWS V13.01,2013-02-14 00:07:00,
2013-02-13 18:12:00,31.8,16.6,29.62,NNE,28,4.7,4.7,53,0.00,,---,0.00,VWS V13.01,2013-02-14 00:12:00,
2013-02-13 18:17:00,31.6,16.9,29.62,NNE,20,4.0,4.7,54,0.00,,---,0.00,VWS V13.01,2013-02-14 00:17:00,
2013-02-13 18:22:00,31.3,17.0,29.62,NNE,29,5.1,5.6,55,0.00,,---,0.00,VWS V13.01,2013-02-14 00:22:00,
2013-02-13 18:28:00,31.1,17.2,29.62,NE,43,6.0,7.4,56,0.00,,---,0.00,VWS V13.01,2013-02-14 00:28:00,
2013-02-13 18:34:00,30.9,17.9,29.62,NNE,19,4.7,5.6,58,0.00,,---,0.00,VWS V13.01,2013-02-14 00:34:00,
2013-02-13 18:39:00,30.6,18.0,29.62,NE,42,5.1,5.1,59,0.00,,---,0.00,VWS V13.01,2013-02-14 00:39:00,
2013-02-13 18:44:00,30.2,18.0,29.62,NNE,27,3.6,3.6,60,0.00,,---,0.00,VWS V13.01,2013-02-14 00:44:00,
2013-02-13 18:51:00,30.2,18.4,29.62,NE,38,3.6,4.5,61,0.00,,---,0.00,VWS V13.01,2013-02-14 00:51:00,
2013-02-13 18:56:00,30.2,18.4,29.62,NE,49,4.0,4.0,61,0.00,,---,0.00,VWS V13.01,2013-02-14 00:56:00,
2013-02-13 19:01:00,30.2,18.8,29.62,NE,53,3.6,3.6,62,0.00,,---,0.00,VWS V13.01,2013-02-14 01:01:00,
2013-02-13 19:06:00,30.0,18.6,29.62,NE,53,0.0,0.0,62,0.00,,---,0.00,VWS V13.01,2013-02-14 01:06:00,
2013-02-13 19:12:00,30.0,18.6,29.62,NE,48,0.0,3.1,62,0.00,,---,0.00,VWS V13.01,2013-02-14 01:12:00,
2013-02-13 19:17:00,30.0,18.6,29.62,NE,41,4.0,4.0,62,0.00,,---,0.00,VWS V13.01,2013-02-14 01:17:00,
2013-02-13 19:23:00,29.8,18.4,29.62,NE,44,3.1,3.1,62,0.00,,---,0.00,VWS V13.01,2013-02-14 01:23:00,
2013-02-13 19:28:00,29.7,18.2,29.62,NNE,16,3.1,3.6,62,0.00,,---,0.00,VWS V13.01,2013-02-14 01:28:00,
2013-02-13 19:34:00,29.7,18.2,29.62,NE,53,3.1,3.1,62,0.00,,---,0.00,VWS V13.01,2013-02-14 01:34:00,
2013-02-13 19:40:00,29.5,18.1,29.62,North,3,4.0,4.0,62,0.00,,---,0.00,VWS V13.01,2013-02-14 01:40:00,
2013-02-13 19:45:00,29.5,18.1,29.62,North,3,0.0,0.0,62,0.00,,---,0.00,VWS V13.01,2013-02-14 01:45:00,
2013-02-13 19:51:00,29.1,18.5,29.62,North,3,0.0,0.0,64,0.00,,---,0.00,VWS V13.01,2013-02-14 01:51:00,
2013-02-13 19:56:00,28.9,18.3,29.62,North,3,0.0,0.0,64,0.00,,---,0.00,VWS V13.01,2013-02-14 01:56:00,
2013-02-13 20:02:00,28.8,18.5,29.62,North,3,0.0,0.0,65,0.00,,---,0.00,VWS V13.01,2013-02-14 02:02:00,
2013-02-13 20:07:00,28.8,18.5,29.62,North,3,0.0,0.0,65,0.00,,---,0.00,VWS V13.01,2013-02-14 02:07:00,
2013-02-13 20:13:00,28.6,18.7,29.65,North,3,0.0,0.0,66,0.00,,---,0.00,VWS V13.01,2013-02-14 02:13:00,
2013-02-13 20:19:00,28.6,19.0,29.65,East,88,3.1,4.0,67,0.00,,---,0.00,VWS V13.01,2013-02-14 02:19:00,
2013-02-13 20:24:00,28.4,19.2,29.65,East,88,0.0,0.0,68,0.00,,---,0.00,VWS V13.01,2013-02-14 02:24:00,
2013-02-13 20:30:00,28.0,19.5,29.65,ESE,106,3.6,3.6,70,0.00,,---,0.00,VWS V13.01,2013-02-14 02:30:00,
2013-02-13 20:36:00,27.9,19.7,29.65,ENE,72,0.0,3.6,71,0.00,,---,0.00,VWS V13.01,2013-02-14 02:36:00,
2013-02-13 20:41:00,27.7,19.5,29.65,ENE,72,0.0,0.0,71,0.00,,---,0.00,VWS V13.01,2013-02-14 02:41:00,
2013-02-13 20:46:00,27.7,19.9,29.65,NE,45,3.6,3.6,72,0.00,,---,0.00,VWS V13.01,2013-02-14 02:46:00,
2013-02-13 20:52:00,27.5,19.7,29.65,NE,48,0.0,0.0,72,0.00,,---,0.00,VWS V13.01,2013-02-14 02:52:00,
2013-02-13 20:57:00,27.3,19.8,29.62,NE,53,0.0,0.0,73,0.00,,---,0.00,VWS V13.01,2013-02-14 02:57:00,
2013-02-13 21:02:00,27.3,19.8,29.62,ENE,60,0.0,0.0,73,0.00,,---,0.00,VWS V13.01,2013-02-14 03:02:00,
2013-02-13 21:08:00,27.3,19.8,29.62,East,86,0.0,0.0,73,0.00,,---,0.00,VWS V13.01,2013-02-14 03:08:00,
2013-02-13 21:13:00,27.3,19.8,29.65,ESE,118,3.1,3.6,73,0.00,,---,0.00,VWS V13.01,2013-02-14 03:13:00,
2013-02-13 21:18:00,27.3,19.8,29.65,ESE,118,0.0,0.0,73,0.00,,---,0.00,VWS V13.01,2013-02-14 03:18:00,
2013-02-13 21:23:00,27.3,19.8,29.65,NE,54,0.0,0.0,73,0.00,,---,0.00,VWS V13.01,2013-02-14 03:23:00,
2013-02-13 21:28:00,27.3,19.8,29.65,NE,54,0.0,0.0,73,0.00,,---,0.00,VWS V13.01,2013-02-14 03:28:00,
2013-02-13 21:33:00,27.1,19.6,29.65,East,89,0.0,0.0,73,0.00,,---,0.00,VWS V13.01,2013-02-14 03:33:00,
2013-02-13 21:38:00,27.1,20.0,29.65,East,89,0.0,0.0,74,0.00,,---,0.00,VWS V13.01,2013-02-14 03:38:00,
2013-02-13 21:43:00,27.1,20.0,29.62,ESE,102,0.0,0.0,74,0.00,,---,0.00,VWS V13.01,2013-02-14 03:43:00,
2013-02-13 21:48:00,27.1,20.0,29.62,NE,51,0.0,0.0,74,0.00,,---,0.00,VWS V13.01,2013-02-14 03:48:00,
2013-02-13 21:53:00,27.1,20.0,29.62,East,89,4.5,4.5,74,0.00,,---,0.00,VWS V13.01,2013-02-14 03:53:00,
2013-02-13 21:58:00,27.1,20.0,29.62,ENE,66,3.1,3.6,74,0.00,,---,0.00,VWS V13.01,2013-02-14 03:58:00,
2013-02-13 22:03:00,27.1,20.0,29.62,ENE,62,0.0,0.0,74,0.00,,---,0.00,VWS V13.01,2013-02-14 04:03:00,
2013-02-13 22:08:00,27.0,19.8,29.62,ENE,75,0.0,0.0,74,0.00,,---,0.00,VWS V13.01,2013-02-14 04:08:00,
2013-02-13 22:13:00,27.0,19.8,29.62,ESE,113,0.0,4.0,74,0.00,,---,0.00,VWS V13.01,2013-02-14 04:13:00,
2013-02-13 22:18:00,27.0,19.8,29.62,ESE,113,0.0,0.0,74,0.00,,---,0.00,VWS V13.01,2013-02-14 04:18:00,
2013-02-13 22:23:00,27.0,19.8,29.62,ESE,113,0.0,0.0,74,0.00,,---,0.00,VWS V13.01,2013-02-14 04:23:00,
2013-02-13 22:28:00,27.0,19.8,29.62,ESE,109,0.0,0.0,74,0.00,,---,0.00,VWS V13.01,2013-02-14 04:28:00,
2013-02-13 22:33:00,27.0,19.8,29.62,ESE,109,0.0,0.0,74,0.00,,---,0.00,VWS V13.01,2013-02-14 04:33:00,
2013-02-13 22:39:00,27.0,19.8,29.62,NE,37,2.7,3.6,74,0.00,,---,0.00,VWS V13.01,2013-02-14 04:39:00,
2013-02-13 22:44:00,27.0,19.8,29.62,ENE,61,0.0,0.0,74,0.00,,---,0.00,VWS V13.01,2013-02-14 04:44:00,
2013-02-13 22:49:00,27.0,19.5,29.62,ENE,61,0.0,0.0,73,0.00,,---,0.00,VWS V13.01,2013-02-14 04:49:00,
2013-02-13 22:55:00,27.0,19.5,29.62,East,83,0.0,0.0,73,0.00,,---,0.00,VWS V13.01,2013-02-14 04:55:00,
2013-02-13 23:00:00,27.0,19.5,29.62,East,83,0.0,0.0,73,0.00,,---,0.00,VWS V13.01,2013-02-14 05:00:00,
2013-02-13 23:01:00,27.0,19.5,29.62,East,83,0.0,0.0,73,0.00,,---,0.00,VWS V13.01,2013-02-14 05:01:00,
2013-02-13 23:03:00,27.0,19.5,29.62,East,83,0.0,0.0,73,0.00,,---,0.00,VWS V13.01,2013-02-14 05:03:00,
2013-02-13 23:07:00,27.0,19.5,29.62,East,83,0.0,0.0,73,0.00,,---,0.00,VWS V13.01,2013-02-14 05:07:00,
2013-02-13 23:12:00,27.0,19.1,29.65,East,83,0.0,0.0,72,0.00,,---,0.00,VWS V13.01,2013-02-14 05:12:00,
2013-02-13 23:18:00,27.0,19.1,29.65,East,81,3.6,4.0,72,0.00,,---,0.00,VWS V13.01,2013-02-14 05:18:00,
2013-02-13 23:23:00,26.8,18.6,29.65,ENE,64,0.0,0.0,71,0.00,,---,0.00,VWS V13.01,2013-02-14 05:23:00,
2013-02-13 23:28:00,26.8,18.6,29.65,ENE,64,0.0,0.0,71,0.00,,---,0.00,VWS V13.01,2013-02-14 05:28:00,
2013-02-13 23:33:00,26.8,18.3,29.65,ENE,64,0.0,0.0,70,0.00,,---,0.00,VWS V13.01,2013-02-14 05:33:00,
2013-02-13 23:39:00,26.8,18.3,29.65,ENE,64,0.0,0.0,70,0.00,,---,0.00,VWS V13.01,2013-02-14 05:39:00,
2013-02-13 23:45:00,26.8,18.3,29.65,ENE,64,0.0,0.0,70,0.00,,---,0.00,VWS V13.01,2013-02-14 05:45:00,
2013-02-13 23:50:00,26.8,18.3,29.65,ENE,64,0.0,0.0,70,0.00,,---,0.00,VWS V13.01,2013-02-14 05:50:00,
2013-02-13 23:56:00,26.8,18.3,29.65,ENE,64,0.0,0.0,70,0.00,,---,0.00,VWS V13.01,2013-02-14 05:56:00,